Time;durP1;ratioP1;P1;durP2;ratioP2;P2;SDS_P1;SDS_P2;PMS_P1;PMS_P2;Temp;Humidity;BMP_temperature;BMP_pressure;BME280_temperature;BME280_humidity;BME280_pressure;Samples;Min_cycle;Max_cycle;Signal;HPM_P1;HPM_P2
2023/10/31 00:00:06;;;;;;;22.55;4.32;;;18.20;99.90;;;;;;5053261;28;20436;-74
2023/10/31 00:02:32;;;;;;;20.48;5.75;;;18.10;99.90;;;;;;5053721;28;20108;-74
2023/10/31 00:04:58;;;;;;;19.67;4.90;;;18.10;99.90;;;;;;5053523;28;20171;-74
2023/10/31 00:07:24;;;;;;;22.83;4.20;;;18.10;99.90;;;;;;5035675;28;20033;-74
2023/10/31 00:09:49;;;;;;;24.17;4.75;;;18.10;99.90;;;;;;5053237;28;20108;-74
2023/10/31 00:12:15;;;;;;;21.58;4.43;;;18.10;99.90;;;;;;5053114;28;20079;-74
2023/10/31 00:14:41;;;;;;;28.63;5.82;;;18.20;99.90;;;;;;5052951;28;20025;-74
2023/10/31 00:17:07;;;;;;;17.98;4.05;;;18.20;99.90;;;;;;5035400;28;20033;-73
2023/10/31 00:19:32;;;;;;;14.25;4.05;;;18.20;99.90;;;;;;5052794;28;20029;-73
2023/10/31 00:21:58;;;;;;;14.80;4.18;;;18.20;99.90;;;;;;5052912;28;20062;-73
2023/10/31 00:24:24;;;;;;;14.25;3.53;;;18.20;99.90;;;;;;5053111;28;20024;-73
2023/10/31 00:26:51;;;;;;;14.43;3.33;;;18.30;99.90;;;;;;5053209;28;20025;-74
2023/10/31 00:29:17;;;;;;;17.58;3.40;;;18.30;99.90;;;;;;5053263;28;20535;-74
2023/10/31 00:31:43;;;;;;;12.68;2.88;;;18.40;99.90;;;;;;5052756;28;20021;-74
2023/10/31 00:34:10;;;;;;;11.68;3.30;;;18.40;99.90;;;;;;5052624;28;20102;-75
2023/10/31 00:36:35;;;;;;;13.90;2.75;;;18.40;99.90;;;;;;5035190;28;20112;-74
2023/10/31 00:39:01;;;;;;;13.18;3.05;;;18.40;99.90;;;;;;5052602;28;20554;-74
2023/10/31 00:41:27;;;;;;;13.77;3.00;;;18.40;99.90;;;;;;5052456;28;20052;-74
2023/10/31 00:43:53;;;;;;;15.20;3.15;;;18.40;99.90;;;;;;5052615;28;20422;-74
2023/10/31 00:46:19;;;;;;;15.70;4.07;;;18.30;99.90;;;;;;5034990;28;20416;-74
2023/10/31 00:48:48;;;;;;;13.60;3.55;;;18.30;99.90;;;;;;5052775;28;20459;-74
2023/10/31 00:51:14;;;;;;;16.02;3.38;;;18.40;99.90;;;;;;5052567;28;20486;-73
2023/10/31 00:53:39;;;;;;;18.40;4.20;;;18.40;99.90;;;;;;5052616;28;20562;-74
2023/10/31 00:56:06;;;;;;;19.92;4.45;;;18.40;99.90;;;;;;5052670;28;20028;-74
2023/10/31 00:58:32;;;;;;;17.45;3.75;;;18.40;99.90;;;;;;5034872;28;20133;-74
2023/10/31 01:00:58;;;;;;;14.73;2.97;;;18.40;99.90;;;;;;5052793;28;20060;-74
2023/10/31 01:03:24;;;;;;;20.67;4.25;;;18.40;99.90;;;;;;5052416;28;20033;-73
2023/10/31 01:05:50;;;;;;;20.90;4.53;;;18.40;99.90;;;;;;5034759;28;20130;-73
2023/10/31 01:08:16;;;;;;;13.48;2.50;;;18.40;99.90;;;;;;5052535;28;20087;-74
2023/10/31 01:10:41;;;;;;;14.90;3.15;;;18.40;99.90;;;;;;5052521;28;20103;-74
2023/10/31 01:13:07;;;;;;;14.15;3.13;;;18.40;99.90;;;;;;5052257;28;20033;-73
2023/10/31 01:15:33;;;;;;;15.23;3.05;;;18.40;99.90;;;;;;5052579;28;20368;-74
2023/10/31 01:17:59;;;;;;;22.88;3.58;;;18.50;99.90;;;;;;5052589;28;20497;-74
2023/10/31 01:20:25;;;;;;;21.30;3.92;;;18.50;99.90;;;;;;5052426;28;20037;-74
2023/10/31 01:22:51;;;;;;;21.10;3.65;;;18.40;99.90;;;;;;5052793;28;20047;-74
2023/10/31 01:25:19;;;;;;;18.25;3.00;;;18.40;99.90;;;;;;5052449;28;20084;-74
2023/10/31 01:27:45;;;;;;;16.25;2.80;;;18.40;99.90;;;;;;5052304;28;20021;-74
2023/10/31 01:30:12;;;;;;;23.90;4.32;;;18.50;99.90;;;;;;5052563;28;20021;-74
2023/10/31 01:32:37;;;;;;;18.02;2.63;;;18.40;99.90;;;;;;5051905;28;20099;-74
2023/10/31 01:35:04;;;;;;;19.13;3.50;;;18.40;99.90;;;;;;5052633;28;20124;-74
2023/10/31 01:37:31;;;;;;;14.32;2.35;;;18.40;99.90;;;;;;5052127;28;20049;-74
2023/10/31 01:39:57;;;;;;;13.60;2.58;;;18.40;99.90;;;;;;5051997;28;20083;-74
2023/10/31 01:42:23;;;;;;;14.32;2.35;;;18.40;99.90;;;;;;5052233;28;20062;-74
2023/10/31 01:44:49;;;;;;;23.52;3.08;;;18.40;99.90;;;;;;5034197;28;20520;-74
2023/10/31 01:47:14;;;;;;;20.83;2.70;;;18.40;99.90;;;;;;5051790;28;20028;-75
2023/10/31 01:49:41;;;;;;;20.17;3.83;;;18.40;99.90;;;;;;5051837;28;20028;-74
2023/10/31 01:52:07;;;;;;;29.13;3.92;;;18.40;99.90;;;;;;5055439;28;20445;-74
2023/10/31 01:54:34;;;;;;;17.88;3.72;;;18.40;99.90;;;;;;5055796;28;20021;-74
2023/10/31 01:57:02;;;;;;;29.42;4.30;;;18.40;99.90;;;;;;5055533;28;20025;-74
2023/10/31 01:59:28;;;;;;;32.13;4.43;;;18.40;99.90;;;;;;5052682;28;20029;-74
2023/10/31 02:01:57;;;;;;;24.73;3.92;;;18.40;99.90;;;;;;5053203;28;20029;-74
2023/10/31 02:04:24;;;;;;;30.88;4.40;;;18.50;99.90;;;;;;5053963;28;20056;-74
2023/10/31 02:06:49;;;;;;;37.33;6.63;;;18.50;99.90;;;;;;5055413;28;20044;-74
2023/10/31 02:09:16;;;;;;;32.75;4.68;;;18.50;99.90;;;;;;5055849;28;20025;-74
2023/10/31 02:11:42;;;;;;;35.05;5.60;;;18.50;99.90;;;;;;5055474;28;20051;-74
2023/10/31 02:14:07;;;;;;;31.10;5.75;;;18.60;99.90;;;;;;5055459;28;20029;-74
2023/10/31 02:16:33;;;;;;;36.47;5.45;;;18.60;99.90;;;;;;5055465;28;20021;-74
2023/10/31 02:18:59;;;;;;;36.70;5.85;;;18.60;99.90;;;;;;5055642;28;20200;-74
2023/10/31 02:21:26;;;;;;;34.22;5.18;;;18.60;99.90;;;;;;5055352;28;20032;-74
2023/10/31 02:23:59;;;;;;;33.78;5.22;;;18.60;99.90;;;;;;5055322;28;20032;-74
2023/10/31 02:26:32;;;;;;;38.83;5.95;;;18.60;99.90;;;;;;5055003;28;20025;-74
2023/10/31 02:28:59;;;;;;;43.22;5.90;;;18.60;99.90;;;;;;5055034;28;20025;-74
2023/10/31 02:31:25;;;;;;;42.00;5.68;;;18.50;99.90;;;;;;5055452;28;20103;-74
2023/10/31 02:33:51;;;;;;;45.78;6.55;;;18.60;99.90;;;;;;5044450;28;20045;-74
2023/10/31 02:36:18;;;;;;;37.55;6.72;;;18.60;99.90;;;;;;5035215;28;20108;-74
2023/10/31 02:38:44;;;;;;;32.20;5.78;;;18.60;99.90;;;;;;5035206;28;20029;-74
2023/10/31 02:41:10;;;;;;;40.45;6.72;;;18.60;99.90;;;;;;5034819;28;20493;-74
2023/10/31 02:43:36;;;;;;;37.97;6.05;;;18.60;99.90;;;;;;5034281;28;20045;-74
2023/10/31 02:46:03;;;;;;;41.03;5.65;;;18.60;99.90;;;;;;5035247;28;20060;-75
2023/10/31 02:48:29;;;;;;;42.67;6.60;;;18.60;99.90;;;;;;5034003;28;20029;-74
2023/10/31 02:50:54;;;;;;;41.10;6.38;;;18.60;99.90;;;;;;5033559;28;20029;-74
2023/10/31 02:53:21;;;;;;;33.05;6.70;;;18.60;99.90;;;;;;5034765;28;20101;-74
2023/10/31 02:55:47;;;;;;;34.30;6.05;;;18.60;99.90;;;;;;5034863;28;20026;-74
2023/10/31 02:58:13;;;;;;;46.65;6.88;;;18.60;99.90;;;;;;5035022;28;20025;-75
2023/10/31 03:00:39;;;;;;;46.58;8.23;;;18.50;99.90;;;;;;5034647;28;20481;-74
2023/10/31 03:03:04;;;;;;;39.55;6.47;;;18.60;99.90;;;;;;5034008;28;20029;-74
2023/10/31 03:05:30;;;;;;;45.00;8.18;;;18.60;99.90;;;;;;5034998;28;20033;-74
2023/10/31 03:07:56;;;;;;;46.85;8.25;;;18.60;99.90;;;;;;5034332;28;20084;-74
2023/10/31 03:10:22;;;;;;;48.47;7.70;;;18.70;99.90;;;;;;5034597;28;20037;-74
2023/10/31 03:12:48;;;;;;;52.53;7.80;;;18.60;99.90;;;;;;5034672;28;20060;-74
2023/10/31 03:15:14;;;;;;;50.78;7.85;;;18.60;99.90;;;;;;5034446;28;20104;-74
2023/10/31 03:17:40;;;;;;;51.97;9.05;;;18.70;99.90;;;;;;5034541;28;20476;-74
2023/10/31 03:20:06;;;;;;;52.65;9.32;;;18.70;99.90;;;;;;5034246;28;20116;-74
2023/10/31 03:22:35;;;;;;;54.38;8.25;;;18.70;99.90;;;;;;5034355;28;20028;-74
2023/10/31 03:25:01;;;;;;;54.90;7.75;;;18.60;99.90;;;;;;5034135;28;20052;-74
2023/10/31 03:27:27;;;;;;;54.25;7.82;;;18.70;99.90;;;;;;5034257;28;20028;-74
2023/10/31 03:29:55;;;;;;;47.85;8.13;;;18.70;99.90;;;;;;5034081;28;20104;-74
2023/10/31 03:32:21;;;;;;;49.20;7.68;;;18.70;99.90;;;;;;5032748;28;20029;-73
2023/10/31 03:34:47;;;;;;;49.63;9.27;;;18.70;99.90;;;;;;5034157;28;20183;-74
2023/10/31 03:37:12;;;;;;;50.72;8.60;;;18.60;99.90;;;;;;5034172;28;20037;-74
2023/10/31 03:39:38;;;;;;;59.90;10.30;;;18.70;99.90;;;;;;5033935;28;20486;-74
2023/10/31 03:42:05;;;;;;;43.58;8.25;;;18.70;99.90;;;;;;5034161;28;20033;-75
2023/10/31 03:44:31;;;;;;;58.88;9.43;;;18.60;99.90;;;;;;5033866;28;20026;-74
2023/10/31 03:46:57;;;;;;;52.28;9.48;;;18.60;99.90;;;;;;5032358;28;20112;-74
2023/10/31 03:49:22;;;;;;;49.25;9.13;;;18.60;99.90;;;;;;5033867;28;20161;-74
2023/10/31 03:51:48;;;;;;;55.08;8.60;;;18.60;99.90;;;;;;5033642;28;20031;-75
2023/10/31 03:54:14;;;;;;;50.83;8.10;;;18.60;99.90;;;;;;5033415;28;20029;-74
2023/10/31 03:56:42;;;;;;;45.55;7.80;;;18.60;99.90;;;;;;5033900;28;20433;-74
2023/10/31 03:59:07;;;;;;;46.63;7.40;;;18.60;99.90;;;;;;5033529;28;20053;-74
2023/10/31 04:01:33;;;;;;;38.65;7.95;;;18.60;99.90;;;;;;5033650;28;20493;-74
2023/10/31 04:03:59;;;;;;;44.25;7.47;;;18.60;99.90;;;;;;5033402;28;20028;-74
2023/10/31 04:06:25;;;;;;;46.90;7.78;;;18.60;99.90;;;;;;5033297;28;20033;-74
2023/10/31 04:08:51;;;;;;;36.88;7.15;;;18.50;99.90;;;;;;5033494;28;20084;-74
2023/10/31 04:11:16;;;;;;;43.45;8.02;;;18.60;99.90;;;;;;5033500;28;20084;-74
2023/10/31 04:13:42;;;;;;;51.28;7.95;;;18.50;99.90;;;;;;5032634;28;20092;-74
2023/10/31 04:16:08;;;;;;;35.33;6.88;;;18.50;99.90;;;;;;5033175;28;20105;-74
2023/10/31 04:18:34;;;;;;;30.35;6.55;;;18.50;99.90;;;;;;5032130;28;20029;-75
2023/10/31 04:21:00;;;;;;;37.65;7.15;;;18.50;99.90;;;;;;5032667;28;20029;-75
2023/10/31 04:23:28;;;;;;;41.80;7.07;;;18.50;99.90;;;;;;5031564;28;20029;-75
2023/10/31 04:25:54;;;;;;;33.92;6.28;;;18.50;99.90;;;;;;5033112;28;20025;-74
2023/10/31 04:28:20;;;;;;;41.50;7.60;;;18.50;99.90;;;;;;5033030;28;20037;-74
2023/10/31 04:30:45;;;;;;;38.88;7.13;;;18.50;99.90;;;;;;5032913;28;20022;-73
2023/10/31 04:33:11;;;;;;;34.92;6.43;;;18.40;99.90;;;;;;5032674;28;20034;-73
2023/10/31 04:35:37;;;;;;;43.55;6.35;;;18.40;99.90;;;;;;5033080;28;20021;-74
2023/10/31 04:38:03;;;;;;;37.60;6.38;;;18.40;99.90;;;;;;5015419;28;20030;-74
2023/10/31 04:40:29;;;;;;;38.72;7.20;;;18.40;99.90;;;;;;5032737;28;20116;-74
2023/10/31 04:42:55;;;;;;;41.83;7.45;;;18.40;99.90;;;;;;5032612;28;20033;-73
2023/10/31 04:45:20;;;;;;;36.40;6.05;;;18.40;99.90;;;;;;5032813;28;20017;-74
2023/10/31 04:47:46;;;;;;;35.95;6.82;;;18.40;99.90;;;;;;5032644;28;20057;-74
2023/10/31 04:50:12;;;;;;;25.98;5.40;;;18.30;99.90;;;;;;5032917;28;20021;-73
2023/10/31 04:52:38;;;;;;;35.00;6.80;;;18.30;99.90;;;;;;5032837;28;20025;-74
2023/10/31 04:55:04;;;;;;;26.70;5.15;;;18.40;99.90;;;;;;5033008;28;20036;-74
2023/10/31 04:57:30;;;;;;;31.45;6.20;;;18.30;99.90;;;;;;5032563;28;20025;-74
2023/10/31 04:59:58;;;;;;;28.63;5.03;;;18.30;99.90;;;;;;5032526;28;20056;-74
2023/10/31 05:02:28;;;;;;;31.08;6.05;;;18.30;99.90;;;;;;5032234;28;20076;-74
2023/10/31 05:04:54;;;;;;;27.63;5.80;;;18.30;99.90;;;;;;5032733;28;20029;-73
2023/10/31 05:07:23;;;;;;;35.20;5.97;;;18.30;99.90;;;;;;5032634;28;20018;-73
2023/10/31 05:09:49;;;;;;;32.30;6.13;;;18.30;99.90;;;;;;5032656;28;20021;-74
2023/10/31 05:12:15;;;;;;;35.80;5.20;;;18.30;99.90;;;;;;5032247;28;20572;-74
2023/10/31 05:14:41;;;;;;;25.00;4.85;;;18.20;99.90;;;;;;5032230;28;20026;-73
2023/10/31 05:17:07;;;;;;;30.50;6.50;;;18.30;99.90;;;;;;5032560;28;20108;-74
2023/10/31 05:19:32;;;;;;;32.67;6.32;;;18.20;99.90;;;;;;5032406;28;20117;-74
2023/10/31 05:21:58;;;;;;;27.65;5.13;;;18.20;99.90;;;;;;5032808;28;20022;-74
2023/10/31 05:24:24;;;;;;;33.47;6.05;;;18.20;99.90;;;;;;5032943;28;20037;-74
2023/10/31 05:26:52;;;;;;;37.78;5.47;;;18.20;99.90;;;;;;5036744;28;20100;-74
2023/10/31 05:29:18;;;;;;;29.77;4.97;;;18.20;99.90;;;;;;5036464;28;20030;-74
2023/10/31 05:31:44;;;;;;;27.30;5.65;;;18.20;99.90;;;;;;5036386;28;20029;-74
2023/10/31 05:34:10;;;;;;;29.55;5.80;;;18.20;99.90;;;;;;5036341;28;20410;-74
2023/10/31 05:36:35;;;;;;;39.33;5.60;;;18.20;99.90;;;;;;5036419;28;20059;-74
2023/10/31 05:39:01;;;;;;;26.17;5.65;;;18.20;99.90;;;;;;5036414;28;20029;-73
2023/10/31 05:41:27;;;;;;;28.38;5.43;;;18.20;99.90;;;;;;5036358;28;20032;-74
2023/10/31 05:43:53;;;;;;;34.20;5.55;;;18.20;99.90;;;;;;5036275;28;20045;-73
2023/10/31 05:46:18;;;;;;;30.85;6.10;;;18.10;99.90;;;;;;5035750;28;20028;-74
2023/10/31 05:48:46;;;;;;;35.20;6.53;;;18.20;99.90;;;;;;5036094;28;20026;-73
2023/10/31 05:51:16;;;;;;;25.92;4.95;;;18.20;99.90;;;;;;5036156;28;20029;-73
2023/10/31 05:53:44;;;;;;;29.95;6.00;;;18.20;99.90;;;;;;5035672;28;20030;-74
2023/10/31 05:56:12;;;;;;;29.52;5.32;;;18.20;99.90;;;;;;5035896;28;20486;-74
2023/10/31 05:58:38;;;;;;;32.08;6.05;;;18.20;99.90;;;;;;5035813;28;20049;-74
2023/10/31 06:01:05;;;;;;;24.67;5.60;;;18.10;99.90;;;;;;5035852;28;20041;-73
2023/10/31 06:03:31;;;;;;;31.77;6.63;;;18.20;99.90;;;;;;5035680;28;20029;-73
2023/10/31 06:05:57;;;;;;;32.65;7.07;;;18.10;99.90;;;;;;5035719;28;20017;-73
2023/10/31 06:08:24;;;;;;;34.75;5.00;;;18.10;99.90;;;;;;5035633;28;20091;-74
2023/10/31 06:10:50;;;;;;;26.70;5.40;;;18.10;99.90;;;;;;5035754;28;20056;-74
2023/10/31 06:13:16;;;;;;;30.27;6.50;;;18.20;99.90;;;;;;5035880;28;20028;-73
2023/10/31 06:15:43;;;;;;;31.10;6.10;;;18.10;99.90;;;;;;5035615;28;20025;-73
2023/10/31 06:18:08;;;;;;;32.22;6.03;;;18.20;99.90;;;;;;5035517;28;20382;-73
2023/10/31 06:20:35;;;;;;;38.47;6.25;;;18.10;99.90;;;;;;5035526;28;20041;-73
2023/10/31 06:23:03;;;;;;;19.77;3.80;;;18.10;99.90;;;;;;5035219;28;20025;-73
2023/10/31 06:25:29;;;;;;;7.43;2.00;;;18.40;99.90;;;;;;5035691;28;20028;-74
2023/10/31 06:27:55;;;;;;;9.82;2.20;;;18.10;99.90;;;;;;5035400;28;20026;-73
2023/10/31 06:30:21;;;;;;;11.20;2.42;;;18.10;99.90;;;;;;5035470;28;20025;-73
2023/10/31 06:32:47;;;;;;;15.50;3.20;;;18.10;99.90;;;;;;5035120;28;20466;-73
2023/10/31 06:35:13;;;;;;;17.10;3.35;;;18.10;99.90;;;;;;5035243;28;20033;-73
2023/10/31 06:37:38;;;;;;;13.10;2.25;;;17.90;99.90;;;;;;5034408;28;20466;-73
2023/10/31 06:40:05;;;;;;;14.02;3.25;;;17.90;99.90;;;;;;5034935;28;20029;-74
2023/10/31 06:42:31;;;;;;;12.70;2.47;;;17.80;99.90;;;;;;5035330;28;20026;-73
2023/10/31 06:44:57;;;;;;;19.00;3.10;;;17.80;99.90;;;;;;5017204;28;20017;-74
2023/10/31 06:47:22;;;;;;;11.10;2.17;;;17.80;99.90;;;;;;5034539;28;20398;-74
2023/10/31 06:49:48;;;;;;;11.25;4.00;;;17.70;99.90;;;;;;5033823;28;20033;-73
2023/10/31 06:52:14;;;;;;;18.45;5.90;;;17.60;99.90;;;;;;5034967;28;20080;-73
2023/10/31 06:54:40;;;;;;;12.93;3.85;;;17.60;99.90;;;;;;5034857;28;20037;-73
2023/10/31 06:57:05;;;;;;;16.02;3.92;;;17.60;99.90;;;;;;5034935;28;20497;-73
2023/10/31 06:59:31;;;;;;;9.02;2.80;;;17.60;99.90;;;;;;5034823;28;20482;-74
2023/10/31 07:01:57;;;;;;;13.50;2.92;;;17.60;99.90;;;;;;5034959;28;20034;-73
2023/10/31 07:04:23;;;;;;;10.88;2.90;;;17.60;99.90;;;;;;5034917;28;20018;-74
2023/10/31 07:06:49;;;;;;;10.43;2.25;;;17.60;99.90;;;;;;5033486;28;20493;-74
2023/10/31 07:09:17;;;;;;;11.65;2.90;;;17.70;99.90;;;;;;5033961;28;20172;-74
2023/10/31 07:11:43;;;;;;;10.88;2.45;;;17.60;99.90;;;;;;5034708;28;20052;-73
2023/10/31 07:14:09;;;;;;;9.18;2.63;;;17.60;99.90;;;;;;5034045;28;20062;-74
2023/10/31 07:16:35;;;;;;;8.80;2.13;;;17.60;99.90;;;;;;5034333;28;20014;-74
2023/10/31 07:19:01;;;;;;;17.33;2.47;;;17.50;99.90;;;;;;5034675;28;20359;-73
2023/10/31 07:21:29;;;;;;;8.45;2.20;;;17.60;99.90;;;;;;5034456;28;20497;-73
2023/10/31 07:23:55;;;;;;;11.13;2.20;;;17.60;99.90;;;;;;5034530;28;20052;-73
2023/10/31 07:26:21;;;;;;;12.35;2.30;;;17.50;99.90;;;;;;5034696;28;20395;-74
2023/10/31 07:28:48;;;;;;;12.98;2.45;;;17.60;99.90;;;;;;5016779;28;20104;-74
2023/10/31 07:31:14;;;;;;;14.50;2.58;;;17.60;99.90;;;;;;5034537;28;20052;-74
2023/10/31 07:33:41;;;;;;;16.60;2.55;;;17.50;99.90;;;;;;5034423;28;20057;-73
2023/10/31 07:36:07;;;;;;;9.48;2.40;;;17.60;99.90;;;;;;5034452;28;20053;-74
2023/10/31 07:38:33;;;;;;;11.57;2.88;;;17.60;99.90;;;;;;5034198;28;20366;-73
2023/10/31 07:40:59;;;;;;;12.50;2.97;;;17.60;99.90;;;;;;5033998;28;20484;-73
2023/10/31 07:43:29;;;;;;;11.18;2.13;;;17.60;99.90;;;;;;5034273;28;20022;-73
2023/10/31 07:45:55;;;;;;;11.13;1.70;;;17.50;99.90;;;;;;5034362;28;20385;-73
2023/10/31 07:48:20;;;;;;;7.55;2.00;;;17.50;99.90;;;;;;5034426;28;20025;-73
2023/10/31 07:50:46;;;;;;;6.75;2.22;;;17.50;99.90;;;;;;5034327;28;20033;-73
2023/10/31 07:53:15;;;;;;;10.32;2.63;;;17.50;99.90;;;;;;5034006;28;20028;-73
2023/10/31 07:55:44;;;;;;;10.18;2.03;;;17.50;99.90;;;;;;5016358;28;20390;-74
2023/10/31 07:58:12;;;;;;;9.60;1.88;;;17.40;99.90;;;;;;5034252;28;20049;-73
2023/10/31 08:00:39;;;;;;;8.48;1.75;;;17.50;99.90;;;;;;5034051;28;20037;-73
2023/10/31 08:03:05;;;;;;;10.73;2.60;;;17.50;99.90;;;;;;5033866;28;20101;-71
2023/10/31 08:05:33;;;;;;;8.57;1.60;;;17.50;99.90;;;;;;5033735;28;20029;-72
2023/10/31 08:07:59;;;;;;;14.85;3.15;;;17.50;99.90;;;;;;5032163;28;20025;-71
2023/10/31 08:10:25;;;;;;;8.57;1.88;;;17.50;99.90;;;;;;5032613;28;20030;-71
2023/10/31 08:12:54;;;;;;;7.03;1.50;;;17.50;99.90;;;;;;5033208;28;20026;-71
2023/10/31 08:15:20;;;;;;;11.13;1.20;;;17.50;99.90;;;;;;5033703;28;20445;-72
2023/10/31 08:17:45;;;;;;;11.18;2.35;;;17.50;99.90;;;;;;5033780;28;20501;-71
2023/10/31 08:20:13;;;;;;;11.60;1.83;;;17.50;99.90;;;;;;5033605;28;20065;-71
2023/10/31 08:22:39;;;;;;;13.73;2.67;;;17.50;99.90;;;;;;5033506;28;20021;-72
2023/10/31 08:25:05;;;;;;;14.27;3.05;;;17.60;99.90;;;;;;5033524;28;21128;-71
2023/10/31 08:27:31;;;;;;;8.30;1.23;;;17.60;99.90;;;;;;5033269;28;20697;-73
2023/10/31 08:29:57;;;;;;;11.07;1.60;;;17.60;99.90;;;;;;5032826;28;20029;-73
2023/10/31 08:32:24;;;;;;;16.08;2.72;;;17.60;99.90;;;;;;5032113;28;20021;-73
2023/10/31 08:34:50;;;;;;;10.07;1.67;;;17.70;99.90;;;;;;5032563;28;20409;-73
2023/10/31 08:37:16;;;;;;;8.70;1.38;;;17.70;99.90;;;;;;5033432;28;20103;-73
2023/10/31 08:39:42;;;;;;;11.32;1.95;;;17.70;99.90;;;;;;5032503;28;20037;-73
2023/10/31 08:42:09;;;;;;;9.10;1.27;;;17.70;99.90;;;;;;5015284;28;20033;-73
2023/10/31 08:44:37;;;;;;;6.25;1.10;;;17.80;99.90;;;;;;5015412;28;20311;-74
2023/10/31 08:47:04;;;;;;;6.25;1.23;;;17.80;99.90;;;;;;5032781;28;20017;-73
2023/10/31 08:49:32;;;;;;;8.70;1.50;;;17.80;99.90;;;;;;5033084;28;20045;-73
2023/10/31 08:51:58;;;;;;;7.35;1.60;;;17.70;99.90;;;;;;5032726;28;20030;-72
2023/10/31 08:54:24;;;;;;;8.57;1.50;;;17.70;99.90;;;;;;5032946;28;20029;-73
2023/10/31 08:56:50;;;;;;;8.73;1.30;;;17.70;99.90;;;;;;5032899;28;20026;-73
2023/10/31 08:59:16;;;;;;;8.05;1.48;;;17.70;99.90;;;;;;5032440;28;20524;-73
2023/10/31 09:01:42;;;;;;;13.43;1.33;;;17.70;99.90;;;;;;5033085;28;20126;-74
2023/10/31 09:04:07;;;;;;;7.60;1.23;;;17.80;99.90;;;;;;5033153;28;20469;-73
2023/10/31 09:06:36;;;;;;;8.88;1.02;;;17.80;99.90;;;;;;5032956;28;20022;-74
2023/10/31 09:09:03;;;;;;;6.70;1.15;;;17.80;99.90;;;;;;5033010;28;20025;-73
2023/10/31 09:11:32;;;;;;;9.77;1.20;;;17.80;99.90;;;;;;5032950;28;20385;-74
2023/10/31 09:14:01;;;;;;;10.45;1.23;;;17.80;99.90;;;;;;5033091;28;20020;-73
2023/10/31 09:16:30;;;;;;;6.32;1.15;;;17.80;99.90;;;;;;5032985;28;20021;-73
2023/10/31 09:18:56;;;;;;;6.40;1.08;;;17.80;99.90;;;;;;5032704;28;20029;-74
2023/10/31 09:21:22;;;;;;;5.65;0.68;;;17.80;99.90;;;;;;5032705;28;20592;-73
2023/10/31 09:23:48;;;;;;;8.95;1.90;;;17.80;99.90;;;;;;5032630;28;20061;-74
2023/10/31 09:26:14;;;;;;;6.25;1.20;;;17.80;99.90;;;;;;5032418;28;20026;-73
2023/10/31 09:28:42;;;;;;;5.40;1.00;;;17.80;99.90;;;;;;5032607;28;20032;-73
2023/10/31 09:31:09;;;;;;;5.75;0.98;;;17.80;99.90;;;;;;5032855;28;20440;-74
2023/10/31 09:33:34;;;;;;;3.83;0.82;;;17.90;99.90;;;;;;5032482;28;20120;-74
2023/10/31 09:36:01;;;;;;;5.68;1.75;;;17.90;99.90;;;;;;5032758;28;20061;-74
2023/10/31 09:38:27;;;;;;;14.07;1.40;;;17.80;99.90;;;;;;5032611;28;20049;-74
2023/10/31 09:40:54;;;;;;;7.80;1.05;;;17.80;99.90;;;;;;5032558;28;20041;-74
2023/10/31 09:43:20;;;;;;;3.17;0.73;;;17.80;99.90;;;;;;5032831;28;20381;-74
2023/10/31 09:45:47;;;;;;;7.97;0.98;;;17.90;99.90;;;;;;5032750;28;20060;-73
2023/10/31 09:48:13;;;;;;;4.78;0.80;;;17.90;99.90;;;;;;5032566;28;20078;-74
2023/10/31 09:50:41;;;;;;;6.60;0.90;;;17.90;99.90;;;;;;5032306;28;20171;-73
2023/10/31 09:53:08;;;;;;;4.72;0.90;;;17.80;99.90;;;;;;5032331;28;20049;-73
2023/10/31 09:55:35;;;;;;;2.67;0.90;;;17.90;99.90;;;;;;5032507;28;20025;-74
2023/10/31 09:58:01;;;;;;;6.82;1.20;;;18.00;99.90;;;;;;5033064;28;20556;-73
2023/10/31 10:00:27;;;;;;;8.10;1.33;;;18.00;99.90;;;;;;5032410;28;20026;-73
2023/10/31 10:02:54;;;;;;;6.60;0.90;;;18.10;99.90;;;;;;5032447;28;20057;-74
2023/10/31 10:05:25;;;;;;;4.93;1.10;;;18.20;99.90;;;;;;5032596;28;20029;-73
2023/10/31 10:07:55;;;;;;;7.30;1.10;;;18.20;99.90;;;;;;5032479;28;20030;-74
2023/10/31 10:10:20;;;;;;;5.95;0.90;;;18.20;99.90;;;;;;5032775;28;20029;-73
2023/10/31 10:12:46;;;;;;;7.28;1.42;;;18.20;99.90;;;;;;5017629;28;20108;-74
2023/10/31 10:15:13;;;;;;;12.85;1.58;;;18.20;99.90;;;;;;5036146;28;20036;-74
2023/10/31 10:17:39;;;;;;;8.70;1.50;;;18.20;99.90;;;;;;5036082;28;20406;-73
2023/10/31 10:20:14;;;;;;;8.52;1.27;;;18.20;99.90;;;;;;5035919;28;20514;-73
2023/10/31 10:22:46;;;;;;;11.30;2.03;;;18.10;99.90;;;;;;5035239;28;20484;-73
2023/10/31 10:25:18;;;;;;;6.65;1.33;;;18.00;99.90;;;;;;5035740;28;20088;-74
2023/10/31 10:27:45;;;;;;;12.13;1.90;;;18.00;99.90;;;;;;5035547;28;20033;-73
2023/10/31 10:30:12;;;;;;;12.95;1.70;;;17.90;99.90;;;;;;5035683;28;20037;-74
2023/10/31 10:32:41;;;;;;;15.95;2.70;;;17.90;99.90;;;;;;5035242;28;20104;-77
2023/10/31 10:35:10;;;;;;;9.40;2.08;;;17.90;99.90;;;;;;5035581;28;20029;-75
2023/10/31 10:37:39;;;;;;;12.23;1.55;;;17.90;99.90;;;;;;5017623;28;20072;-76
2023/10/31 10:40:11;;;;;;;11.50;1.83;;;17.90;99.90;;;;;;5035321;28;20389;-76
2023/10/31 10:42:47;;;;;;;12.07;2.10;;;17.90;99.90;;;;;;5035341;28;20389;-76
2023/10/31 10:45:15;;;;;;;7.72;1.90;;;17.90;99.90;;;;;;5035485;28;20037;-76
2023/10/31 10:47:48;;;;;;;5.10;1.30;;;17.90;99.90;;;;;;5035087;28;20021;-76
2023/10/31 10:50:15;;;;;;;10.20;1.63;;;18.00;99.90;;;;;;5035196;28;20026;-75
2023/10/31 10:53:00;;;;;;;7.15;1.27;;;17.90;99.90;;;;;;5035135;28;20017;-76
2023/10/31 10:55:29;;;;;;;8.10;1.40;;;17.90;99.90;;;;;;5035504;28;20030;-76
2023/10/31 10:58:08;;;;;;;7.45;1.50;;;17.90;99.90;;;;;;5035289;28;20049;-76
2023/10/31 11:00:37;;;;;;;9.13;1.77;;;17.90;99.90;;;;;;5035025;28;20041;-76
2023/10/31 11:03:04;;;;;;;8.73;1.60;;;18.00;99.90;;;;;;5035004;28;20025;-75
2023/10/31 11:05:33;;;;;;;7.05;1.92;;;18.00;99.90;;;;;;5035072;28;20021;-75
2023/10/31 11:08:00;;;;;;;12.85;2.40;;;18.10;99.90;;;;;;5035182;28;20026;-76
2023/10/31 11:10:27;;;;;;;10.02;1.80;;;18.10;99.90;;;;;;5035153;28;20041;-76
2023/10/31 11:12:53;;;;;;;9.35;1.90;;;18.10;99.90;;;;;;5035003;28;20445;-76
2023/10/31 11:15:23;;;;;;;11.98;1.70;;;18.10;99.90;;;;;;5035037;28;20021;-76
2023/10/31 11:17:49;;;;;;;9.30;1.60;;;18.00;99.90;;;;;;5034658;28;20025;-76
2023/10/31 11:20:19;;;;;;;11.05;1.90;;;18.00;99.90;;;;;;5034751;28;20088;-76
2023/10/31 11:22:49;;;;;;;9.73;1.55;;;18.00;99.90;;;;;;5034195;28;20025;-76
2023/10/31 11:25:20;;;;;;;13.98;1.70;;;18.00;99.90;;;;;;5034345;28;20112;-76
2023/10/31 11:27:57;;;;;;;9.52;1.85;;;17.90;99.90;;;;;;5016851;28;20032;-75
2023/10/31 11:30:30;;;;;;;10.00;1.33;;;17.90;99.90;;;;;;5034501;28;20030;-74
2023/10/31 11:33:03;;;;;;;8.90;1.20;;;17.80;99.90;;;;;;5034295;28;20540;-75
2023/10/31 11:35:35;;;;;;;5.97;1.35;;;17.80;99.90;;;;;;5034100;28;20021;-76
2023/10/31 11:38:10;;;;;;;13.85;2.42;;;17.70;99.90;;;;;;5034374;28;20065;-75
2023/10/31 11:40:37;;;;;;;6.32;1.17;;;17.70;99.90;;;;;;5034159;28;20494;-75
2023/10/31 11:43:05;;;;;;;8.95;1.33;;;17.70;99.90;;;;;;5034166;28;20100;-76
2023/10/31 11:45:47;;;;;;;8.15;1.33;;;17.60;99.90;;;;;;5034332;28;20029;-76
2023/10/31 11:48:16;;;;;;;6.43;1.02;;;17.70;99.90;;;;;;5033971;28;20029;-75
2023/10/31 11:50:42;;;;;;;5.38;0.90;;;17.70;99.90;;;;;;5034186;28;20032;-76
2023/10/31 11:53:18;;;;;;;6.30;0.82;;;17.70;99.90;;;;;;5033951;28;20363;-76
2023/10/31 11:55:46;;;;;;;5.90;0.82;;;17.80;99.90;;;;;;5033620;28;20131;-77
2023/10/31 11:58:19;;;;;;;4.78;0.95;;;17.90;99.90;;;;;;5016203;28;20025;-75
2023/10/31 12:00:47;;;;;;;5.35;0.80;;;17.90;99.90;;;;;;5015946;28;20044;-75
2023/10/31 12:03:21;;;;;;;4.15;0.90;;;18.00;99.90;;;;;;5033396;28;20022;-75
2023/10/31 12:06:00;;;;;;;5.05;0.98;;;17.80;99.90;;;;;;5033799;28;20388;-76
2023/10/31 12:08:32;;;;;;;6.18;1.38;;;17.90;99.90;;;;;;5033075;28;20036;-74
2023/10/31 12:11:16;;;;;;;6.97;0.88;;;17.90;99.90;;;;;;5033336;28;20381;-75
2023/10/31 12:13:55;;;;;;;5.57;0.88;;;17.90;99.90;;;;;;5015608;28;20040;-75
2023/10/31 12:16:25;;;;;;;3.28;0.80;;;17.90;99.90;;;;;;5015099;28;20025;-77
2023/10/31 12:19:05;;;;;;;10.10;0.85;;;17.90;99.90;;;;;;5033190;28;20363;-75
2023/10/31 12:21:49;;;;;;;7.22;1.05;;;17.90;99.90;;;;;;5033326;28;20033;-76
2023/10/31 12:24:17;;;;;;;7.10;1.05;;;17.90;99.90;;;;;;5033012;28;20060;-75
2023/10/31 12:26:44;;;;;;;7.05;1.00;;;17.80;99.90;;;;;;5033074;28;20025;-74
2023/10/31 12:29:18;;;;;;;11.15;1.30;;;17.80;99.90;;;;;;5015148;28;20014;-76
2023/10/31 12:31:48;;;;;;;8.52;1.20;;;17.70;99.90;;;;;;5032940;28;20030;-77
2023/10/31 12:34:17;;;;;;;7.65;1.08;;;17.70;99.90;;;;;;5032255;28;20573;-75
2023/10/31 12:36:45;;;;;;;6.00;0.90;;;17.70;99.90;;;;;;5032812;28;20044;-76
2023/10/31 12:39:12;;;;;;;8.50;1.30;;;17.70;99.90;;;;;;5032732;28;20056;-74